createdAt,value
2022-11-18T00:01:59.471Z,86.60
2022-11-18T00:05:01.923Z,87.64
2022-11-18T00:08:04.524Z,87.67
2022-11-18T00:11:13.201Z,87.54
2022-11-18T00:14:24.384Z,88.12
2022-11-18T00:17:26.904Z,88.88
2022-11-18T00:20:29.370Z,88.77
2022-11-18T00:23:32.440Z,88.60
2022-11-18T00:26:36.249Z,88.72
2022-11-18T00:29:39.205Z,88.62
2022-11-18T00:32:41.920Z,88.53
2022-11-18T00:35:44.423Z,88.51
2022-11-18T00:38:46.890Z,88.72
2022-11-18T00:42:08.750Z,87.58
2022-11-18T00:45:11.300Z,88.24
2022-11-18T00:48:13.722Z,87.90
2022-11-18T00:51:18.540Z,88.81
2022-11-18T00:54:21.138Z,90.50
2022-11-18T00:57:23.564Z,90.29
2022-11-18T01:00:26.069Z,90.51
2022-11-18T01:03:29.569Z,90.16
2022-11-18T01:06:32.267Z,89.30
2022-11-18T01:09:34.878Z,89.39
2022-11-18T01:12:55.756Z,90.03
2022-11-18T01:15:59.097Z,89.50
2022-11-18T01:19:02.110Z,89.28
2022-11-18T01:22:04.638Z,88.62
2022-11-18T01:25:07.507Z,89.09
2022-11-18T01:28:11.235Z,88.87
2022-11-18T01:31:16.753Z,88.73
2022-11-18T01:34:19.327Z,88.15
2022-11-18T01:37:21.746Z,88.46
2022-11-18T01:40:27.623Z,88.15
2022-11-18T01:43:50.171Z,88.76
2022-11-18T01:46:52.765Z,88.75
2022-11-18T01:49:55.634Z,88.53
2022-11-18T01:53:05.819Z,88.56
2022-11-18T01:56:14.168Z,88.81
2022-11-18T01:59:24.451Z,88.58
2022-11-18T02:02:27.736Z,88.58
2022-11-18T02:05:31.643Z,88.69
2022-11-18T02:08:37.566Z,88.40
2022-11-18T02:11:53.983Z,88.34
2022-11-18T02:14:56.914Z,88.57
2022-11-18T02:18:19.637Z,88.42
2022-11-18T02:21:41.979Z,88.15
2022-11-18T02:25:07.714Z,88.65
2022-11-18T02:28:30.575Z,88.26
2022-11-18T02:31:46.507Z,87.90
2022-11-18T02:35:12.335Z,88.29
2022-11-18T02:38:23.702Z,88.31
2022-11-18T02:41:29.432Z,87.89
2022-11-18T02:44:33.947Z,88.39
2022-11-18T02:47:38.204Z,88.36
2022-11-18T02:50:44.083Z,87.69
2022-11-18T02:53:48.954Z,87.80
2022-11-18T02:56:52.440Z,87.83
2022-11-18T02:59:54.900Z,88.73
2022-11-18T03:02:57.408Z,88.07
2022-11-18T03:06:06.830Z,88.30
2022-11-18T03:09:32.888Z,88.33
2022-11-18T03:12:44.177Z,88.03
2022-11-18T03:16:02.713Z,87.63
2022-11-18T03:19:11.248Z,88.68
2022-11-18T03:22:24.115Z,89.17
2022-11-18T03:25:50.578Z,88.78
2022-11-18T03:29:02.146Z,88.89
2022-11-18T03:32:14.376Z,89.63
2022-11-18T03:35:22.907Z,89.54
2022-11-18T03:38:30.963Z,89.34
2022-11-18T03:41:40.234Z,88.99
2022-11-18T03:44:52.371Z,89.95
2022-11-18T03:48:01.117Z,89.89
2022-11-18T03:51:09.838Z,89.65
2022-11-18T03:54:20.158Z,89.97
2022-11-18T03:57:30.875Z,89.98
2022-11-18T04:00:40.665Z,90.40
2022-11-18T04:03:43.928Z,90.46
2022-11-18T04:06:50.423Z,90.65
2022-11-18T04:09:58.317Z,90.12
2022-11-18T04:13:18.087Z,89.89
2022-11-18T04:16:20.746Z,90.41
2022-11-18T04:19:23.558Z,89.82
2022-11-18T04:22:26.339Z,89.68
2022-11-18T04:25:28.785Z,89.72
2022-11-18T04:28:31.202Z,90.40
2022-11-18T04:31:33.708Z,90.21
2022-11-18T04:34:36.122Z,89.40
2022-11-18T04:37:38.643Z,89.59
2022-11-18T04:40:41.040Z,89.47
2022-11-18T04:43:43.452Z,89.58
2022-11-18T04:46:45.866Z,88.89
2022-11-18T04:49:48.375Z,88.95
2022-11-18T04:52:50.853Z,89.94
2022-11-18T04:55:53.404Z,89.30
2022-11-18T04:58:55.941Z,89.89
2022-11-18T05:02:01.070Z,90.73
2022-11-18T05:05:03.801Z,91.11
2022-11-18T05:08:06.301Z,90.69
2022-11-18T05:11:27.508Z,90.94
2022-11-18T05:14:30.519Z,90.35
2022-11-18T05:17:35.531Z,88.67
2022-11-18T05:20:41.525Z,89.46
2022-11-18T05:23:44.467Z,90.34
2022-11-18T05:26:47.057Z,89.95
2022-11-18T05:29:49.572Z,89.99
2022-11-18T05:32:52.119Z,89.92
2022-11-18T05:35:55.392Z,89.91
2022-11-18T05:39:01.729Z,90.97
2022-11-18T05:42:23.307Z,89.41
2022-11-18T05:45:25.841Z,90.12
2022-11-18T05:48:28.453Z,89.89
2022-11-18T05:51:30.983Z,90.53
2022-11-18T05:54:33.496Z,90.66
2022-11-18T05:57:35.923Z,89.26
2022-11-18T06:00:38.451Z,90.28
2022-11-18T06:03:41.821Z,91.32
2022-11-18T06:06:48.797Z,90.58
2022-11-18T06:09:58.755Z,90.93
2022-11-18T06:13:10.225Z,91.20
2022-11-18T06:16:13.617Z,90.25
2022-11-18T06:19:17.359Z,90.53
2022-11-18T06:22:20.441Z,91.53
2022-11-18T06:25:24.571Z,92.82
2022-11-18T06:28:28.776Z,94.29
2022-11-18T06:31:31.547Z,94.05
2022-11-18T06:34:39.797Z,94.07
2022-11-18T06:37:44.781Z,94.41
2022-11-18T06:40:47.583Z,93.64
2022-11-18T06:43:50.080Z,93.38
2022-11-18T06:46:58.570Z,93.64
2022-11-18T06:50:01.157Z,94.11
2022-11-18T06:53:03.777Z,94.16
2022-11-18T06:56:12.787Z,94.09
2022-11-18T06:59:15.816Z,92.34
2022-11-18T07:02:19.380Z,91.98
2022-11-18T07:05:25.144Z,92.46
2022-11-18T07:08:28.360Z,92.96
2022-11-18T07:11:31.257Z,92.65
2022-11-18T07:14:34.035Z,92.70
2022-11-18T07:17:39.569Z,92.36
2022-11-18T07:20:45.646Z,91.47
2022-11-18T07:23:49.198Z,91.07
2022-11-18T07:26:54.402Z,89.46
2022-11-18T07:29:58.164Z,89.69
2022-11-18T07:33:01.780Z,90.40
2022-11-18T07:36:09.420Z,90.67
2022-11-18T07:39:12.042Z,90.22
2022-11-18T07:42:14.767Z,89.71
2022-11-18T07:45:18.763Z,88.97
2022-11-18T07:48:21.611Z,89.52
2022-11-18T07:51:26.979Z,89.34
2022-11-18T07:54:29.672Z,88.27
2022-11-18T07:57:32.195Z,87.18
2022-11-18T08:00:34.955Z,85.74
2022-11-18T08:03:38.666Z,91.27
2022-11-18T08:06:41.544Z,90.50
2022-11-18T08:09:44.322Z,88.16
2022-11-18T08:12:47.471Z,87.87
2022-11-18T08:15:50.959Z,86.20
2022-11-18T08:18:54.017Z,87.14
2022-11-18T08:21:56.689Z,85.94
2022-11-18T08:24:59.403Z,80.76
2022-11-18T08:28:06.303Z,81.21
2022-11-18T08:31:25.407Z,84.03
2022-11-18T08:34:28.843Z,87.05
2022-11-18T08:37:34.674Z,88.80
2022-11-18T08:40:46.582Z,88.20
2022-11-18T08:43:49.205Z,89.81
2022-11-18T08:46:51.756Z,86.24
2022-11-18T08:49:54.392Z,84.29
2022-11-18T08:52:57.077Z,85.94
2022-11-18T08:56:01.403Z,86.49
2022-11-18T08:59:04.283Z,87.79
2022-11-18T09:02:12.894Z,88.74
2022-11-18T09:05:15.736Z,89.82
2022-11-18T09:08:18.638Z,89.61
2022-11-18T09:11:27.428Z,89.16
2022-11-18T09:15:12.533Z,89.51
2022-11-18T09:17:53.550Z,91.36
2022-11-18T09:20:59.679Z,89.45
2022-11-18T09:24:05.286Z,87.71
2022-11-18T09:27:13.647Z,87.84
2022-11-18T09:30:18.057Z,88.52
2022-11-18T09:33:21.396Z,88.54
2022-11-18T09:36:26.117Z,88.21
2022-11-18T09:39:28.805Z,87.23
2022-11-18T09:43:06.280Z,87.03
2022-11-18T09:46:20.062Z,87.25
2022-11-18T09:49:28.973Z,88.02
2022-11-18T09:52:37.420Z,89.33
2022-11-18T09:55:41.848Z,88.10
2022-11-18T09:58:45.559Z,87.85
2022-11-18T10:01:50.769Z,88.09
2022-11-18T10:04:56.272Z,87.89
2022-11-18T10:08:26.599Z,87.31
2022-11-18T10:11:41.440Z,87.04
2022-11-18T10:15:06.223Z,86.66
2022-11-18T10:21:56.298Z,86.46
2022-11-18T10:25:00.941Z,86.21
2022-11-18T10:28:15.301Z,85.68
2022-11-18T10:31:18.035Z,89.23
2022-11-18T10:34:21.372Z,84.50
2022-11-18T10:37:38.709Z,84.89
2022-11-18T10:40:52.479Z,83.99
2022-11-18T10:43:56.413Z,86.07
2022-11-18T10:47:31.441Z,86.41
2022-11-18T10:50:35.968Z,83.74
2022-11-18T10:53:39.031Z,86.60
2022-11-18T10:57:24.771Z,80.88
2022-11-18T11:00:46.004Z,84.99
2022-11-18T11:04:03.415Z,78.90
2022-11-18T11:07:25.648Z,83.37
2022-11-18T11:10:28.684Z,82.15
2022-11-18T11:13:32.789Z,80.71
2022-11-18T11:16:45.737Z,83.80
2022-11-18T11:20:21.963Z,83.88
2022-11-18T11:23:25.469Z,83.85
2022-11-18T11:30:17.009Z,85.92
2022-11-18T11:33:53.683Z,86.27
2022-11-18T11:37:13.023Z,87.55
2022-11-18T11:40:26.126Z,85.66
2022-11-18T11:43:43.747Z,86.97
2022-11-18T11:47:14.302Z,87.68
2022-11-18T11:51:03.032Z,87.59
2022-11-18T11:54:40.067Z,87.92
2022-11-18T11:57:52.983Z,88.33
2022-11-18T12:01:37.438Z,87.65
2022-11-18T12:04:56.789Z,87.38
2022-11-18T12:08:02.350Z,87.64
2022-11-18T12:11:23.102Z,87.63
2022-11-18T12:14:35.760Z,88.22
2022-11-18T12:18:05.003Z,88.19
2022-11-18T12:21:07.836Z,88.52
2022-11-18T12:24:20.880Z,87.89
2022-11-18T12:27:30.380Z,87.94
2022-11-18T12:30:33.032Z,87.85
2022-11-18T12:33:44.119Z,87.84
2022-11-18T12:36:46.737Z,88.19
2022-11-18T12:40:03.112Z,87.75
2022-11-18T12:43:45.307Z,87.63
2022-11-18T12:46:50.430Z,87.55
2022-11-18T12:50:13.700Z,87.43
2022-11-18T12:53:37.861Z,88.38
2022-11-18T12:56:41.326Z,87.97
2022-11-18T12:59:43.992Z,88.63
2022-11-18T13:02:55.578Z,87.85
2022-11-18T13:06:12.562Z,87.65
2022-11-18T13:09:26.660Z,88.91
2022-11-18T13:12:30.517Z,88.04
2022-11-18T13:15:53.752Z,88.58
2022-11-18T13:18:56.499Z,88.35
2022-11-18T13:22:19.525Z,88.79
2022-11-18T13:25:26.579Z,89.15
2022-11-18T13:28:35.168Z,89.03
2022-11-18T13:32:01.064Z,88.84
2022-11-18T13:35:19.465Z,88.45
2022-11-18T13:38:28.470Z,88.82
2022-11-18T13:41:34.268Z,88.76
2022-11-18T13:44:38.451Z,88.90
2022-11-18T13:47:49.810Z,89.01
2022-11-18T13:50:55.336Z,89.02
2022-11-18T13:53:58.221Z,88.71
2022-11-18T13:57:01.011Z,88.96
2022-11-18T14:00:07.984Z,88.84
2022-11-18T14:03:31.620Z,89.11
2022-11-18T14:06:36.973Z,88.77
2022-11-18T14:10:02.903Z,88.67
2022-11-18T14:13:17.934Z,89.39
2022-11-18T14:16:20.657Z,89.19
2022-11-18T14:19:31.627Z,89.39
2022-11-18T14:22:34.562Z,88.44
2022-11-18T14:25:37.258Z,88.91
2022-11-18T14:28:39.754Z,87.95
2022-11-18T14:31:42.697Z,88.06
2022-11-18T14:34:45.368Z,88.25
2022-11-18T14:37:47.907Z,88.24
2022-11-18T14:40:58.691Z,88.17
2022-11-18T14:44:01.125Z,88.77
2022-11-18T14:47:12.322Z,88.35
2022-11-18T14:50:15.459Z,88.44
2022-11-18T14:53:18.912Z,88.24
2022-11-18T14:56:26.725Z,88.04
2022-11-18T14:59:29.662Z,89.00
2022-11-18T15:02:32.381Z,89.47
2022-11-18T15:05:35.167Z,89.84
2022-11-18T15:08:37.711Z,88.89
2022-11-18T15:11:40.599Z,88.50
2022-11-18T15:14:43.063Z,87.92
2022-11-18T15:17:48.460Z,88.33
2022-11-18T15:20:53.714Z,90.08
2022-11-18T15:23:56.595Z,89.90
2022-11-18T15:26:59.137Z,89.24
2022-11-18T15:30:02.148Z,89.60
2022-11-18T15:33:04.856Z,90.03
2022-11-18T15:36:16.739Z,89.82
2022-11-18T15:39:19.208Z,89.51
2022-11-18T15:42:23.486Z,89.76
2022-11-18T15:45:26.210Z,88.35
2022-11-18T15:48:28.658Z,88.95
2022-11-18T15:51:31.600Z,86.71
2022-11-18T15:54:34.024Z,88.45
2022-11-18T15:57:36.880Z,87.33
2022-11-18T16:00:39.253Z,87.76
2022-11-18T16:03:41.751Z,87.14
2022-11-18T16:06:44.302Z,87.35
2022-11-18T16:10:05.565Z,87.65
2022-11-18T16:13:08.336Z,87.78
2022-11-18T16:16:21.762Z,88.34
2022-11-18T16:19:26.587Z,86.50
2022-11-18T16:22:29.104Z,86.50
2022-11-18T16:25:31.612Z,86.64
2022-11-18T16:28:34.060Z,87.85
2022-11-18T16:31:43.751Z,86.96
2022-11-18T16:34:46.447Z,85.31
2022-11-18T16:37:52.049Z,85.79
2022-11-18T16:40:59.201Z,85.29
2022-11-18T16:44:05.142Z,86.19
2022-11-18T16:47:13.845Z,85.19
2022-11-18T16:50:17.292Z,85.18
2022-11-18T16:53:19.895Z,85.57
2022-11-18T16:56:28.653Z,84.31
2022-11-18T16:59:31.583Z,84.96
2022-11-18T17:02:34.068Z,84.81
2022-11-18T17:05:36.765Z,84.85
2022-11-18T17:08:39.459Z,85.00
2022-11-18T17:11:42.357Z,85.50
2022-11-18T17:14:45.153Z,85.66
2022-11-18T17:17:47.614Z,85.10
2022-11-18T17:20:50.099Z,85.02
2022-11-18T17:23:53.261Z,85.20
2022-11-18T17:26:56.538Z,85.39
2022-11-18T17:29:59.024Z,85.29
2022-11-18T17:33:01.621Z,86.17
2022-11-18T17:36:10.072Z,85.49
2022-11-18T17:39:13.444Z,85.63
2022-11-18T17:42:17.807Z,85.64
2022-11-18T17:45:20.199Z,85.92
2022-11-18T17:48:25.359Z,85.43
2022-11-18T17:51:30.627Z,86.68
2022-11-18T17:54:33.271Z,85.96
2022-11-18T17:57:35.937Z,86.41
2022-11-18T18:00:39.584Z,86.28
2022-11-18T18:03:42.552Z,86.88
2022-11-18T18:06:45.319Z,86.94
2022-11-18T18:09:47.977Z,87.26
2022-11-18T18:13:09.266Z,87.30
2022-11-18T18:16:11.883Z,87.14
2022-11-18T18:19:22.545Z,87.55
2022-11-18T18:22:25.155Z,87.96
2022-11-18T18:25:27.934Z,87.21
2022-11-18T18:28:30.720Z,87.50
2022-11-18T18:31:35.186Z,87.05
2022-11-18T18:34:37.542Z,87.16
2022-11-18T18:37:40.162Z,86.49
2022-11-18T18:40:43.339Z,86.97
2022-11-18T18:43:46.823Z,87.95
2022-11-18T18:46:49.255Z,87.29
2022-11-18T18:49:51.844Z,87.20
2022-11-18T18:52:54.401Z,86.83
2022-11-18T18:55:57.053Z,86.82
2022-11-18T18:59:00.086Z,87.51
2022-11-18T19:02:04.161Z,87.26
2022-11-18T19:05:07.620Z,87.31
2022-11-18T19:08:10.559Z,87.78
2022-11-18T19:11:33.763Z,86.80
2022-11-18T19:14:36.460Z,87.20
2022-11-18T19:17:39.393Z,87.39
2022-11-18T19:20:43.717Z,86.72
2022-11-18T19:23:46.998Z,88.01
2022-11-18T19:26:49.599Z,88.56
2022-11-18T19:29:52.471Z,88.13
2022-11-18T19:32:56.371Z,88.03
2022-11-18T19:36:03.714Z,87.04
2022-11-18T19:39:06.224Z,86.89
2022-11-18T19:42:11.105Z,87.36
2022-11-18T19:45:14.347Z,86.54
2022-11-18T19:48:16.910Z,87.20
2022-11-18T19:51:19.913Z,86.81
2022-11-18T19:54:22.606Z,86.35
2022-11-18T19:57:25.832Z,90.65
2022-11-18T20:00:28.190Z,85.31
2022-11-18T20:03:30.721Z,84.94
2022-11-18T20:06:36.076Z,84.06
2022-11-18T20:09:38.669Z,84.33
2022-11-18T20:12:41.409Z,83.30
2022-11-18T20:15:45.210Z,83.61
2022-11-18T20:18:52.011Z,82.57
2022-11-18T20:21:54.576Z,82.14
2022-11-18T20:24:57.196Z,81.91
2022-11-18T20:28:00.065Z,81.68
2022-11-18T20:31:04.291Z,81.11
2022-11-18T20:34:06.970Z,80.74
2022-11-18T20:37:09.474Z,80.39
2022-11-18T20:40:12.766Z,80.09
2022-11-18T20:43:15.481Z,81.09
2022-11-18T20:46:21.777Z,80.70
2022-11-18T20:49:24.581Z,79.86
2022-11-18T20:52:27.140Z,79.35
2022-11-18T20:55:29.569Z,79.93
2022-11-18T20:58:33.091Z,79.31
2022-11-18T21:01:35.964Z,80.12
2022-11-18T21:04:38.596Z,79.10
2022-11-18T21:07:41.219Z,78.73
2022-11-18T21:10:44.119Z,79.43
2022-11-18T21:14:05.478Z,79.87
2022-11-18T21:17:08.028Z,78.47
2022-11-18T21:20:30.712Z,78.65
2022-11-18T21:23:33.390Z,77.45
2022-11-18T21:26:37.516Z,77.39
2022-11-18T21:29:41.545Z,77.77
2022-11-18T21:32:43.970Z,77.64
2022-11-18T21:35:46.424Z,78.40
2022-11-18T21:38:49.255Z,77.42
2022-11-18T21:41:56.140Z,77.24
2022-11-18T21:44:59.754Z,77.28
2022-11-18T21:48:02.251Z,76.83
2022-11-18T21:51:07.891Z,76.51
2022-11-18T21:54:11.842Z,76.55
2022-11-18T21:57:14.403Z,76.64
2022-11-18T22:00:18.227Z,75.23
2022-11-18T22:03:20.610Z,75.54
2022-11-18T22:06:25.496Z,75.34
2022-11-18T22:09:32.897Z,75.73
2022-11-18T22:12:38.436Z,75.33
2022-11-18T22:15:40.930Z,76.21
2022-11-18T22:18:45.886Z,75.78
2022-11-18T22:21:48.416Z,76.32
2022-11-18T22:24:50.869Z,76.04
2022-11-18T22:27:56.284Z,75.31
2022-11-18T22:31:17.026Z,76.34
2022-11-18T22:34:19.479Z,75.83
2022-11-18T22:37:21.899Z,74.61
2022-11-18T22:40:24.339Z,75.12
2022-11-18T22:43:26.858Z,74.52
2022-11-18T22:46:29.434Z,73.58
2022-11-18T22:49:31.894Z,72.46
2022-11-18T22:52:34.478Z,73.38
2022-11-18T22:55:36.908Z,72.43
2022-11-18T22:58:39.951Z,72.82
2022-11-18T23:01:42.573Z,71.82
2022-11-18T23:04:45.018Z,71.84
2022-11-18T23:07:47.492Z,72.59
2022-11-18T23:10:50.242Z,72.26
2022-11-18T23:14:03.987Z,72.96
2022-11-18T23:17:06.686Z,72.66
2022-11-18T23:20:09.598Z,71.92
2022-11-18T23:23:12.335Z,71.92
2022-11-18T23:26:15.936Z,71.74
2022-11-18T23:29:19.044Z,71.98
2022-11-18T23:32:21.987Z,71.78
2022-11-18T23:35:24.633Z,71.48
2022-11-18T23:38:30.792Z,70.95
2022-11-18T23:41:33.279Z,70.15
2022-11-18T23:44:47.286Z,71.37
2022-11-18T23:47:49.740Z,71.44
2022-11-18T23:51:08.173Z,71.29
2022-11-18T23:54:10.637Z,71.19
2022-11-18T23:57:13.072Z,70.43
